Soradoville, Pennsylvania
Current Conditions -  °F | °C
As of 2:35 AM on Thursday 23 Oct 2014 (Local Time) from KUNV Reporting Station
Overcast Overcast  
Wind Chill: 47°   Ceiling: 1900
Heat Index: 47°   Visibility: 10mi
Dew Point: 41°   Wind: 3mph
Humidity: 79%   Direction: 350°N
Pressure: 30"   Gusts: NA
Location:  40.7125°N, 77.3707°W
Report Text: KUNV 230635Z AUTO 35003KT 10SM OVC019 09/05 A3000 RMK AO2 T00850050
Loading
Personal Weather Stations






























Interactive Weather Map
Tropical Storm Tracking
New forecast layout! Learn more

10-Day Weather Forecast

Advertisements
Track Severe Weather on mobile